createdAt,value
2019-05-16T00:05:01.643Z,36.27
2019-05-16T00:10:08.377Z,37.80
2019-05-16T00:15:13.215Z,37.90
2019-05-16T00:20:19.148Z,39.43
2019-05-16T00:25:22.858Z,37.00
2019-05-16T00:30:28.744Z,37.90
2019-05-16T00:35:32.656Z,37.60
2019-05-16T00:40:38.171Z,37.23
2019-05-16T00:45:42.452Z,37.80
2019-05-16T00:50:48.144Z,36.20
2019-05-16T00:55:52.559Z,35.23
2019-05-16T01:00:56.572Z,34.63
2019-05-16T01:06:00.616Z,34.53
2019-05-16T01:11:04.748Z,34.20
2019-05-16T01:16:08.833Z,32.77
2019-05-16T01:21:13.197Z,31.13
2019-05-16T01:26:18.560Z,30.37
2019-05-16T01:31:22.994Z,31.73
2019-05-16T01:36:36.882Z,34.57
2019-05-16T01:41:34.117Z,33.27
2019-05-16T01:46:39.113Z,30.23
2019-05-16T01:51:43.191Z,31.30
2019-05-16T01:56:48.064Z,28.23
2019-05-16T02:01:52.265Z,30.40
2019-05-16T02:06:58.301Z,29.20
2019-05-16T02:12:01.855Z,28.70
2019-05-16T02:17:05.883Z,29.25
2019-05-16T02:22:09.911Z,30.40
2019-05-16T02:27:13.937Z,31.43
2019-05-16T02:32:17.812Z,33.57
2019-05-16T02:37:29.303Z,31.43
2019-05-16T02:42:30.739Z,34.47
2019-05-16T02:47:35.087Z,33.83
2019-05-16T02:52:41.361Z,30.47
2019-05-16T02:57:45.165Z,31.37
2019-05-16T03:02:50.476Z,28.33
2019-05-16T03:07:54.749Z,29.67
2019-05-16T03:13:00.965Z,27.43
2019-05-16T03:18:05.262Z,27.10
2019-05-16T03:23:11.191Z,24.47
2019-05-16T03:28:14.855Z,21.77
2019-05-16T03:33:26.002Z,23.03
2019-05-16T03:38:24.403Z,21.90
2019-05-16T03:43:30.971Z,21.47
2019-05-16T03:48:34.045Z,20.47
2019-05-16T03:53:40.423Z,22.17
2019-05-16T03:58:43.819Z,25.87
2019-05-16T04:03:50.805Z,25.40
2019-05-16T04:08:53.398Z,25.37
2019-05-16T04:13:57.432Z,25.90
2019-05-16T04:19:01.920Z,26.93
2019-05-16T04:24:06.096Z,26.50
2019-05-16T04:29:11.858Z,25.20
2019-05-16T04:34:15.686Z,27.47
2019-05-16T04:39:20.833Z,27.60
2019-05-16T04:44:25.170Z,27.80
2019-05-16T04:49:31.764Z,26.80
2019-05-16T04:54:34.767Z,26.93
2019-05-16T04:59:41.412Z,26.90
2019-05-16T05:04:44.446Z,28.20
2019-05-16T05:09:51.164Z,25.90
2019-05-16T05:14:53.911Z,26.90
2019-05-16T05:19:57.856Z,26.23
2019-05-16T05:25:01.794Z,24.87
2019-05-16T05:30:10.537Z,26.57
2019-05-16T05:35:14.019Z,27.63
2019-05-16T05:40:19.924Z,26.43
2019-05-16T05:45:23.461Z,26.07
2019-05-16T05:50:27.303Z,26.33
2019-05-16T05:55:31.496Z,27.37
2019-05-16T06:00:35.485Z,23.95
2019-05-16T06:05:41.231Z,21.12
2019-05-16T06:10:45.028Z,23.50
2019-05-16T06:15:51.080Z,22.07
2019-05-16T06:20:54.435Z,23.12
2019-05-16T06:26:00.381Z,26.75
2019-05-16T06:31:03.846Z,27.25
2019-05-16T06:36:07.734Z,26.48
2019-05-16T06:41:11.676Z,26.55
2019-05-16T06:46:15.569Z,19.45
2019-05-16T06:51:20.020Z,21.77
2019-05-16T06:56:24.232Z,22.30
2019-05-16T07:01:29.777Z,22.87
2019-05-16T07:06:51.938Z,22.22
2019-05-16T07:11:39.782Z,16.90
2019-05-16T07:16:44.112Z,11.83
2019-05-16T07:21:50.829Z,13.10
2019-05-16T07:26:54.524Z,11.88
2019-05-16T07:32:00.368Z,11.85
2019-05-16T07:37:03.959Z,10.72
2019-05-16T07:42:10.853Z,8.30
2019-05-16T07:47:13.388Z,9.93
2019-05-16T07:52:20.632Z,8.05
2019-05-16T07:57:23.188Z,7.75
2019-05-16T08:02:27.192Z,6.70
2019-05-16T08:07:33.578Z,5.62
2019-05-16T08:12:36.610Z,5.33
2019-05-16T08:17:41.377Z,6.25
2019-05-16T08:22:45.988Z,6.53
2019-05-16T08:32:55.489Z,7.60
2019-05-16T08:33:20.741Z,7.33
2019-05-16T08:38:01.060Z,8.75
2019-05-16T08:43:05.249Z,8.48
2019-05-16T08:48:11.402Z,8.30
2019-05-16T08:53:14.694Z,7.80
2019-05-16T08:58:22.114Z,7.20
2019-05-16T09:03:24.207Z,7.08
2019-05-16T09:08:28.136Z,7.22
2019-05-16T09:13:32.038Z,6.37
2019-05-16T09:18:41.108Z,5.75
2019-05-16T09:23:41.695Z,5.80
2019-05-16T09:28:48.211Z,5.83
2019-05-16T09:33:51.157Z,6.25
2019-05-16T09:38:57.641Z,5.33
2019-05-16T09:44:00.623Z,5.47
2019-05-16T09:49:23.643Z,6.47
2019-05-16T09:54:10.251Z,6.85
2019-05-16T09:59:14.143Z,6.58
2019-05-16T10:04:18.001Z,6.12
2019-05-16T10:09:21.873Z,5.55
2019-05-16T10:14:26.847Z,5.75
2019-05-16T10:19:30.929Z,6.15
2019-05-16T10:24:37.359Z,6.95
2019-05-16T10:29:40.304Z,8.43
2019-05-16T10:34:46.537Z,7.75
2019-05-16T10:39:49.859Z,8.13
2019-05-16T10:44:53.696Z,7.83
2019-05-16T10:49:57.605Z,8.93
2019-05-16T10:55:02.639Z,9.98
2019-05-16T11:00:17.961Z,10.23
2019-05-16T11:05:29.530Z,10.23
2019-05-16T11:10:22.259Z,10.18
2019-05-16T11:15:27.815Z,9.85
2019-05-16T11:20:31.761Z,8.60
2019-05-16T11:25:36.684Z,9.08
2019-05-16T11:30:40.784Z,9.28
2019-05-16T11:35:47.332Z,9.20
2019-05-16T11:40:50.213Z,9.60
2019-05-16T11:45:54.086Z,7.92
2019-05-16T11:50:58.017Z,7.95
2019-05-16T11:56:02.270Z,9.15
2019-05-16T12:01:07.475Z,7.85
2019-05-16T12:06:11.840Z,8.73
2019-05-16T12:11:17.934Z,7.58
2019-05-16T12:16:22.033Z,7.37
2019-05-16T12:21:27.439Z,7.85
2019-05-16T12:26:31.600Z,7.33
2019-05-16T12:31:37.422Z,7.90
2019-05-16T12:36:40.985Z,6.90
2019-05-16T12:41:48.830Z,6.83
2019-05-16T12:46:50.507Z,6.65
2019-05-16T12:51:54.372Z,7.00
2019-05-16T12:56:58.270Z,6.60
2019-05-16T13:02:02.160Z,6.35
2019-05-16T13:07:09.322Z,6.37
2019-05-16T13:12:11.688Z,7.42
2019-05-16T13:17:16.666Z,7.10
2019-05-16T13:22:20.806Z,7.55
2019-05-16T13:27:24.690Z,6.80
2019-05-16T13:32:28.597Z,7.75
2019-05-16T13:37:32.452Z,8.10
2019-05-16T13:42:36.835Z,8.55
2019-05-16T13:47:41.026Z,9.20
2019-05-16T13:52:47.793Z,8.30
2019-05-16T13:57:50.502Z,10.00
2019-05-16T14:02:54.364Z,10.63
2019-05-16T14:07:58.281Z,9.78
2019-05-16T14:13:02.295Z,10.48
2019-05-16T14:18:07.703Z,10.00
2019-05-16T14:23:11.867Z,10.53
2019-05-16T14:28:17.338Z,10.40
2019-05-16T14:33:21.523Z,10.35
2019-05-16T14:38:26.989Z,9.80
2019-05-16T14:43:31.130Z,10.60
2019-05-16T14:48:37.051Z,9.23
2019-05-16T14:53:40.770Z,9.53
2019-05-16T14:58:48.115Z,9.50
2019-05-16T15:03:50.231Z,10.15
2019-05-16T15:08:56.577Z,10.60
2019-05-16T15:13:59.680Z,10.05
2019-05-16T15:19:03.601Z,10.25
2019-05-16T15:24:07.449Z,11.95
2019-05-16T15:29:11.389Z,12.58
2019-05-16T15:34:15.287Z,13.28
2019-05-16T15:39:19.154Z,17.27
2019-05-16T15:44:23.054Z,14.60
2019-05-16T15:49:27.016Z,15.63
2019-05-16T15:54:32.721Z,13.30
2019-05-16T15:59:37.529Z,13.05
2019-05-16T16:04:41.721Z,13.48
2019-05-16T16:09:47.086Z,14.45
2019-05-16T16:14:51.081Z,13.78
2019-05-16T16:19:57.771Z,15.72
2019-05-16T16:25:00.545Z,14.28
2019-05-16T16:30:07.543Z,13.90
2019-05-16T16:35:14.062Z,14.55
2019-05-16T16:40:19.237Z,17.98
2019-05-16T16:45:23.408Z,15.55
2019-05-16T16:50:27.305Z,18.60
2019-05-16T16:55:31.191Z,20.30
2019-05-16T17:00:37.932Z,21.05
2019-05-16T17:05:40.593Z,31.10
2019-05-16T17:10:47.423Z,23.38
2019-05-16T17:15:50.012Z,22.42
2019-05-16T17:20:54.090Z,24.40
2019-05-16T17:25:58.104Z,26.15
2019-05-16T17:31:02.131Z,29.05
2019-05-16T17:36:09.243Z,30.62
2019-05-16T17:41:11.717Z,34.23
2019-05-16T17:46:15.600Z,30.25
2019-05-16T17:51:19.673Z,34.73
2019-05-16T17:56:23.552Z,31.17
2019-05-16T18:01:27.628Z,31.10
2019-05-16T18:06:31.650Z,28.75
2019-05-16T18:11:37.381Z,30.85
2019-05-16T18:16:52.352Z,33.40
2019-05-16T18:21:47.311Z,31.20
2019-05-16T18:26:51.331Z,38.33
2019-05-16T18:31:55.368Z,37.50
2019-05-16T18:36:59.490Z,34.43
2019-05-16T18:42:03.626Z,34.78
2019-05-16T18:47:11.249Z,36.60
2019-05-16T18:52:13.212Z,33.88
2019-05-16T18:57:17.636Z,31.55
2019-05-16T19:02:21.882Z,33.02
2019-05-16T19:07:27.331Z,31.27
2019-05-16T19:12:31.464Z,30.02
2019-05-16T19:17:35.598Z,29.80
2019-05-16T19:22:39.629Z,28.27
2019-05-16T19:27:46.307Z,29.92
2019-05-16T19:32:49.517Z,26.68
2019-05-16T19:37:53.544Z,25.75
2019-05-16T19:42:57.568Z,23.18
2019-05-16T19:48:01.596Z,24.75
2019-05-16T19:53:07.760Z,22.50
2019-05-16T19:58:11.178Z,23.73
2019-05-16T20:03:16.688Z,23.30
2019-05-16T20:08:20.846Z,23.40
2019-05-16T20:13:27.218Z,23.00
2019-05-16T20:18:30.483Z,24.15
2019-05-16T20:23:36.838Z,22.77
2019-05-16T20:28:40.062Z,23.40
2019-05-16T20:33:44.086Z,23.77
2019-05-16T20:38:48.115Z,22.80
2019-05-16T20:43:52.137Z,22.00
2019-05-16T20:48:58.716Z,19.37
2019-05-16T20:54:01.723Z,21.27
2019-05-16T20:59:07.009Z,18.32
2019-05-16T21:04:11.167Z,17.67
2019-05-16T21:09:16.912Z,17.70
2019-05-16T21:14:21.005Z,16.95
2019-05-16T21:19:24.932Z,16.67
2019-05-16T21:24:28.955Z,16.95
2019-05-16T21:29:33.090Z,16.10
2019-05-16T21:34:37.211Z,17.42
2019-05-16T21:39:41.241Z,16.73
2019-05-16T21:44:46.636Z,17.20
2019-05-16T21:49:50.934Z,13.53
2019-05-16T21:54:56.573Z,12.53
2019-05-16T22:00:00.935Z,11.33
2019-05-16T22:05:06.706Z,13.08
2019-05-16T22:10:10.943Z,12.88
2019-05-16T22:15:17.067Z,13.58
2019-05-16T22:20:21.238Z,12.15
2019-05-16T22:25:27.128Z,12.55
2019-05-16T22:30:30.932Z,13.03
2019-05-16T22:35:37.353Z,12.75
2019-05-16T22:40:40.523Z,13.00
2019-05-16T22:45:46.668Z,12.47
2019-05-16T22:50:50.108Z,12.37
2019-05-16T22:55:56.544Z,14.85
2019-05-16T23:01:00.103Z,16.65
2019-05-16T23:06:04.135Z,15.72
2019-05-16T23:11:08.111Z,15.95
2019-05-16T23:16:12.194Z,17.12
2019-05-16T23:21:16.955Z,15.03
2019-05-16T23:26:21.117Z,12.88
2019-05-16T23:31:26.977Z,12.47
2019-05-16T23:36:30.752Z,13.68
2019-05-16T23:41:36.668Z,16.32
2019-05-16T23:46:40.349Z,15.53
2019-05-16T23:51:44.370Z,15.13
2019-05-16T23:56:48.398Z,14.73
